| time (UTC) | temp F | wind direction | speed knots | gust knots | rain 1hr in | rain 24hr in | rain mn in | humidity % | barometer mb |
| 20260901181607 | 61 | 353 | 1.7 | 4.3 | 0.00 | 0.00 | 0.00 | 88 | 1014.2 |
| 20260901180604 | 60 | 143 | 0.9 | 4.3 | 0.00 | 0.00 | 0.00 | 89 | 1014.2 |
| 20260901175602 | 59 | 137 | 0.9 | 3.5 | 0.00 | 0.00 | 0.00 | 90 | 1014.2 |
| 20260901174600 | 59 | 196 | 0.9 | 3.5 | 0.00 | 0.00 | 0.00 | 91 | 1014.2 |
| 20260901173558 | 58 | 127 | 0.9 | 3.5 | 0.00 | 0.00 | 0.00 | 93 | 1014.3 |
| 20260901172556 | 57 | 213 | 0.9 | 2.6 | 0.00 | 0.00 | 0.00 | 95 | 1014.2 |
| 20260901171555 | 57 | 171 | 0.9 | 2.6 | 0.00 | 0.00 | 0.00 | 95 | 1014.1 |
| 20260901170553 | 57 | 257 | 0.9 | 2.6 | 0.00 | 0.00 | 0.00 | 95 | 1014.1 |
| 20260901165552 | 57 | 79 | 0.9 | 2.6 | 0.00 | 0.00 | 0.00 | 95 | 1014.1 |
| 20260901164611 | 57 | 183 | 0.9 | 2.6 | 0.00 | 0.00 | 0.00 | 94 | 1014.0 |
| 20260901163609 | 57 | 176 | 0.9 | 2.6 | 0.00 | 0.00 | 0.00 | 93 | 1014.0 |
| 20260901162547 | 57 | 263 | 1.7 | 2.6 | 0.00 | 0.00 | 0.00 | 92 | 1014.1 |
| 20260901161545 | 57 | 208 | 0.9 | 1.7 | 0.00 | 0.00 | 0.00 | 91 | 1014.0 |
| 20260901160543 | 58 | 190 | 0.9 | 2.6 | 0.00 | 0.00 | 0.00 | 90 | 1014.0 |
| 20260901155540 | 58 | 67 | 0.9 | 2.6 | 0.00 | 0.00 | 0.00 | 88 | 1014.0 |
| 20260901154538 | 58 | 145 | 0.0 | 1.7 | 0.00 | 0.00 | 0.00 | 87 | 1013.9 |
| 20260901153538 | 58 | 214 | 0.9 | 1.7 | 0.00 | 0.00 | 0.00 | 87 | 1014.0 |
| 20260901152536 | 58 | 197 | 0.9 | 1.7 | 0.00 | 0.00 | 0.00 | 87 | 1014.0 |
| 20260901151534 | 58 | 169 | 0.9 | 1.7 | 0.00 | 0.00 | 0.00 | 87 | 1013.9 |
| 20260901150533 | 58 | 323 | 0.9 | 2.6 | 0.00 | 0.00 | 0.00 | 86 | 1013.7 |
| 20260901145532 | 58 | 273 | 1.7 | 2.6 | 0.00 | 0.00 | 0.00 | 86 | 1013.6 |
| 20260901144530 | 57 | 247 | 0.0 | 1.7 | 0.00 | 0.00 | 0.00 | 87 | 1013.6 |
| 20260901143528 | 57 | 151 | 0.9 | 2.6 | 0.00 | 0.00 | 0.00 | 87 | 1013.6 |
| 20260901142526 | 57 | 211 | 0.0 | 2.6 | 0.00 | 0.00 | 0.00 | 87 | 1013.5 |
| 20260901141525 | 57 | 303 | 0.9 | 2.6 | 0.00 | 0.00 | 0.00 | 87 | 1013.5 |
| 20260901140543 | 57 | 121 | 0.0 | 1.7 | 0.00 | 0.00 | 0.00 | 87 | 1013.5 |
| 20260901135541 | 57 | 307 | 0.9 | 2.6 | 0.00 | 0.00 | 0.00 | 87 | 1013.4 |
| 20260901134518 | 57 | 211 | 0.9 | 2.6 | 0.00 | 0.00 | 0.00 | 87 | 1013.4 |
| 20260901133516 | 57 | 150 | 1.7 | 2.6 | 0.00 | 0.00 | 0.00 | 87 | 1013.3 |
| 20260901132614 | 57 | 0.0 | 2.6 | 0.00 | 0.00 | 0.00 | 87 | 1013.3 | |
| 20260901131612 | 57 | 270 | 1.7 | 3.5 | 0.00 | 0.00 | 0.00 | 87 | 1013.3 |
| 20260901130610 | 57 | 155 | 1.7 | 3.5 | 0.00 | 0.00 | 0.00 | 87 | 1013.2 |
| 20260901125628 | 57 | 137 | 0.9 | 3.5 | 0.00 | 0.00 | 0.00 | 87 | 1013.2 |
| 20260901124606 | 57 | 270 | 1.7 | 4.3 | 0.00 | 0.00 | 0.00 | 87 | 1013.1 |
| 20260901123604 | 57 | 310 | 1.7 | 3.5 | 0.00 | 0.00 | 0.00 | 87 | 1013.1 |
| 20260901122603 | 57 | 97 | 1.7 | 3.5 | 0.00 | 0.00 | 0.00 | 88 | 1013.2 |
| 20260901121601 | 57 | 69 | 1.7 | 3.5 | 0.00 | 0.00 | 0.00 | 88 | 1013.2 |
| 20260901120600 | 57 | 323 | 1.7 | 4.3 | 0.00 | 0.00 | 0.00 | 88 | 1013.1 |
| 20260901115558 | 57 | 75 | 1.7 | 3.5 | 0.00 | 0.00 | 0.00 | 88 | 1013.3 |
| 20260901114557 | 57 | 280 | 2.6 | 4.3 | 0.00 | 0.00 | 0.00 | 88 | 1013.1 |
| 20260901113555 | 56 | 0.0 | 1.7 | 0.00 | 0.00 | 0.00 | 89 | 1013.2 | |
| 20260901112554 | 56 | 153 | 0.9 | 3.5 | 0.00 | 0.00 | 0.00 | 89 | 1013.1 |
| 20260901111634 | 55 | 201 | 0.9 | 3.5 | 0.00 | 0.00 | 0.00 | 91 | 1013.0 |
| 20260901110550 | 55 | 115 | 2.6 | 3.5 | 0.00 | 0.00 | 0.00 | 91 | 1013.0 |
| 20260901105549 | 55 | 250 | 0.9 | 3.5 | 0.00 | 0.00 | 0.00 | 90 | 1012.8 |
| 20260901104548 | 56 | 284 | 2.6 | 5.2 | 0.00 | 0.00 | 0.00 | 89 | 1012.9 |
| 20260901103546 | 56 | 42 | 0.0 | 1.7 | 0.00 | 0.00 | 0.00 | 89 | 1012.9 |
| 20260901102544 | 56 | 207 | 0.0 | 0.9 | 0.00 | 0.00 | 0.00 | 88 | 1012.8 |
| 20260901101542 | 56 | 0.0 | 1.7 | 0.00 | 0.00 | 0.00 | 88 | 1012.8 | |
| 20260901100540 | 57 | 197 | 0.0 | 1.7 | 0.00 | 0.00 | 0.00 | 87 | 1012.8 |
| 20260901095537 | 57 | 335 | 0.9 | 1.7 | 0.00 | 0.00 | 0.00 | 87 | 1012.8 |
| 20260901094555 | 57 | 352 | 0.0 | 1.7 | 0.00 | 0.00 | 0.00 | 87 | 1012.6 |
| 20260901093533 | 57 | 0.0 | 0.9 | 0.00 | 0.00 | 0.00 | 86 | 1012.7 | |
| 20260901092530 | 57 | 245 | 0.9 | 1.7 | 0.00 | 0.00 | 0.00 | 86 | 1012.5 |
| 20260901091550 | 57 | 0.0 | 1.7 | 0.00 | 0.00 | 0.00 | 86 | 1012.4 | |
| 20260901090528 | 58 | 0.0 | 0.0 | 0.00 | 0.00 | 0.00 | 86 | 1012.3 | |
| 20260901085526 | 58 | 330 | 0.0 | 0.9 | 0.00 | 0.00 | 0.00 | 86 | 1012.3 |
| 20260901084525 | 58 | 0.0 | 0.0 | 0.00 | 0.00 | 0.00 | 86 | 1012.4 | |
| 20260901083523 | 58 | 0.0 | 0.0 | 0.00 | 0.00 | 0.00 | 85 | 1012.3 | |
| 20260901082522 | 58 | 315 | 0.0 | 1.7 | 0.00 | 0.00 | 0.00 | 85 | 1012.4 |
| 20260901081520 | 59 | 201 | 0.9 | 2.6 | 0.00 | 0.00 | 0.00 | 84 | 1012.4 |
| 20260901080518 | 59 | 0.0 | 0.0 | 0.00 | 0.00 | 0.00 | 83 | 1012.2 | |
| 20260901075517 | 59 | 150 | 0.9 | 1.7 | 0.00 | 0.00 | 0.00 | 83 | 1012.2 |
| 20260901074515 | 60 | 166 | 0.9 | 1.7 | 0.00 | 0.00 | 0.00 | 82 | 1012.2 |
| 20260901073614 | 60 | 155 | 0.9 | 1.7 | 0.00 | 0.00 | 0.00 | 82 | 1012.2 |
| 20260901072632 | 60 | 168 | 0.0 | 1.7 | 0.00 | 0.00 | 0.00 | 81 | 1012.2 |
| 20260901071610 | 61 | 0.0 | 1.7 | 0.00 | 0.00 | 0.00 | 80 | 1012.0 | |
| 20260901070610 | 61 | 0.0 | 0.9 | 0.00 | 0.00 | 0.00 | 79 | 1011.8 | |
| 20260901065607 | 62 | 0.0 | 1.7 | 0.00 | 0.00 | 0.00 | 78 | 1011.8 | |
| 20260901064648 | 62 | 185 | 0.0 | 1.7 | 0.00 | 0.00 | 0.00 | 76 | 1011.5 |
| 20260901063603 | 63 | 166 | 0.9 | 2.6 | 0.00 | 0.00 | 0.00 | 75 | 1011.4 |
| 20260901062600 | 64 | 0.0 | 0.9 | 0.00 | 0.00 | 0.00 | 73 | 1011.2 | |
| 20260901061558 | 65 | 175 | 0.9 | 2.6 | 0.00 | 0.00 | 0.00 | 72 | 1011.0 |
| 20260901060557 | 65 | 0.0 | 0.0 | 0.00 | 0.00 | 0.00 | 73 | 1011.0 | |
| 20260901055554 | 66 | 0.0 | 0.0 | 0.00 | 0.00 | 0.00 | 72 | 1010.9 | |
| 20260901054614 | 66 | 0.0 | 0.0 | 0.00 | 0.00 | 0.00 | 71 | 1010.7 | |
| 20260901053552 | 67 | 0.0 | 0.0 | 0.00 | 0.00 | 0.00 | 70 | 1010.7 | |
| 20260901052550 | 67 | 0.0 | 0.0 | 0.00 | 0.00 | 0.00 | 69 | 1010.7 | |
| 20260901051547 | 68 | 314 | 0.0 | 0.9 | 0.00 | 0.00 | 0.00 | 67 | 1010.7 |
| 20260901050545 | 68 | 0.0 | 0.0 | 0.00 | 0.00 | 0.00 | 65 | 1010.5 | |
| 20260901045543 | 69 | 332 | 0.0 | 1.7 | 0.00 | 0.00 | 0.00 | 62 | 1010.4 |
| 20260901044621 | 69 | 348 | 0.0 | 0.9 | 0.00 | 0.00 | 0.00 | 60 | 1010.4 |
| 20260901043559 | 70 | 0.0 | 1.7 | 0.00 | 0.00 | 0.00 | 58 | 1010.3 | |
| 20260901042537 | 70 | 0.0 | 0.9 | 0.00 | 0.00 | 0.00 | 57 | 1010.1 | |
| 20260901041555 | 69 | 0.0 | 0.9 | 0.00 | 0.00 | 0.00 | 58 | 1009.9 | |
| 20260901040533 | 70 | 0.0 | 0.9 | 0.00 | 0.00 | 0.00 | 58 | 1009.8 | |
| 20260901035530 | 70 | 0.0 | 1.7 | 0.00 | 0.00 | 0.00 | 57 | 1009.8 | |
| 20260901034528 | 71 | 0.0 | 0.0 | 0.00 | 0.00 | 0.00 | 57 | 1009.7 | |
| 20260901033526 | 71 | 0.0 | 0.0 | 0.00 | 0.00 | 0.00 | 57 | 1009.5 | |
| 20260901032605 | 72 | 0.0 | 0.0 | 0.00 | 0.00 | 0.00 | 56 | 1009.4 | |
| 20260901031524 | 73 | 0.0 | 0.9 | 0.00 | 0.00 | 0.00 | 54 | 1009.2 | |
| 20260901030522 | 74 | 0.0 | 0.0 | 0.00 | 0.00 | 0.00 | 53 | 1009.4 | |
| 20260901025520 | 75 | 0.0 | 0.0 | 0.00 | 0.00 | 0.00 | 52 | 1009.3 | |
| 20260901024517 | 76 | 0.0 | 1.7 | 0.00 | 0.00 | 0.00 | 48 | 1009.4 | |
| 20260901023615 | 77 | 0.0 | 0.0 | 0.00 | 0.00 | 0.00 | 47 | 1009.4 | |
| 20260901022613 | 78 | 158 | 0.9 | 1.7 | 0.00 | 0.00 | 0.00 | 46 | 1009.3 |
| 20260901021611 | 79 | 0.0 | 0.9 | 0.00 | 0.00 | 0.00 | 46 | 1009.3 | |
| 20260901020609 | 80 | 144 | 0.9 | 3.5 | 0.00 | 0.00 | 0.00 | 45 | 1009.3 |
| 20260901015607 | 81 | 154 | 0.9 | 3.5 | 0.00 | 0.00 | 0.00 | 44 | 1009.3 |
| 20260901014605 | 82 | 144 | 0.9 | 2.6 | 0.00 | 0.00 | 0.00 | 44 | 1009.1 |
| 20260901013602 | 82 | 215 | 1.7 | 2.6 | 0.00 | 0.00 | 0.00 | 43 | 1009.1 |
| 20260901012600 | 82 | 96 | 0.9 | 2.6 | 0.00 | 0.00 | 0.00 | 41 | 1009.1 |
| 20260901011558 | 83 | 278 | 0.0 | 1.7 | 0.00 | 0.00 | 0.00 | 38 | 1009.3 |
| 20260901010556 | 84 | 194 | 1.7 | 2.6 | 0.00 | 0.00 | 0.00 | 36 | 1009.2 |
| 20260901005554 | 85 | 161 | 0.9 | 2.6 | 0.00 | 0.00 | 0.00 | 35 | 1009.3 |
| 20260901004552 | 86 | 158 | 1.7 | 3.5 | 0.00 | 0.00 | 0.00 | 34 | 1009.1 |
| 20260901003549 | 87 | 173 | 0.0 | 1.7 | 0.00 | 0.00 | 0.00 | 34 | 1009.2 |
| 20260901002547 | 86 | 139 | 2.6 | 5.2 | 0.00 | 0.00 | 0.00 | 34 | 1009.3 |
| 20260901001546 | 87 | 116 | 0.9 | 3.5 | 0.00 | 0.00 | 0.00 | 34 | 1009.2 |
| 20260901000543 | 86 | 128 | 1.7 | 3.5 | 0.00 | 0.00 | 0.00 | 35 | 1009.3 |
| 20260831235541 | 88 | 115 | 2.6 | 4.3 | 0.00 | 0.00 | 0.00 | 33 | 1009.3 |
| 20260831234539 | 87 | 0.0 | 1.7 | 0.00 | 0.00 | 0.00 | 34 | 1009.4 | |
| 20260831233536 | 88 | 131 | 1.7 | 3.5 | 0.00 | 0.00 | 0.00 | 33 | 1009.3 |
| 20260831232535 | 87 | 163 | 0.9 | 2.6 | 0.00 | 0.00 | 0.00 | 34 | 1009.4 |
| 20260831231534 | 87 | 147 | 1.7 | 5.2 | 0.00 | 0.00 | 0.00 | 34 | 1009.4 |
| 20260831230532 | 88 | 72 | 1.7 | 3.5 | 0.00 | 0.00 | 0.00 | 33 | 1009.5 |
| 20260831225530 | 88 | 122 | 0.9 | 3.5 | 0.00 | 0.00 | 0.00 | 34 | 1009.7 |
| 20260831224528 | 87 | 119 | 2.6 | 4.3 | 0.00 | 0.00 | 0.00 | 35 | 1009.7 |
| 20260831223526 | 86 | 136 | 1.7 | 4.3 | 0.00 | 0.00 | 0.00 | 36 | 1009.8 |
| 20260831222525 | 87 | 149 | 1.7 | 4.3 | 0.00 | 0.00 | 0.00 | 34 | 1009.8 |
| 20260831221524 | 87 | 93 | 0.9 | 2.6 | 0.00 | 0.00 | 0.00 | 36 | 1009.8 |
| 20260831220541 | 87 | 102 | 1.7 | 3.5 | 0.00 | 0.00 | 0.00 | 35 | 1009.9 |
| 20260831215519 | 86 | 115 | 1.7 | 3.5 | 0.00 | 0.00 | 0.00 | 36 | 1010.0 |
| 20260831214517 | 85 | 127 | 0.0 | 3.5 | 0.00 | 0.00 | 0.00 | 37 | 1010.1 |
| 20260831213615 | 85 | 119 | 0.9 | 2.6 | 0.00 | 0.00 | 0.00 | 38 | 1010.3 |
| 20260831212614 | 85 | 97 | 0.9 | 2.6 | 0.00 | 0.00 | 0.00 | 38 | 1010.3 |
| 20260831211612 | 86 | 146 | 1.7 | 4.3 | 0.00 | 0.00 | 0.00 | 37 | 1010.3 |
| 20260831210611 | 85 | 51 | 1.7 | 2.6 | 0.00 | 0.00 | 0.00 | 38 | 1010.4 |
| 20260831205608 | 83 | 85 | 0.9 | 2.6 | 0.00 | 0.00 | 0.00 | 40 | 1010.5 |
| 20260831204606 | 84 | 349 | 0.9 | 2.6 | 0.00 | 0.00 | 0.00 | 40 | 1010.6 |
| 20260831203604 | 83 | 169 | 2.6 | 4.3 | 0.00 | 0.00 | 0.00 | 40 | 1010.8 |
| 20260831202602 | 82 | 119 | 0.9 | 4.3 | 0.00 | 0.00 | 0.00 | 42 | 1011.0 |
| 20260831201602 | 81 | 155 | 0.9 | 3.5 | 0.00 | 0.00 | 0.00 | 42 | 1010.9 |
| 20260831200558 | 79 | 158 | 1.7 | 4.3 | 0.00 | 0.00 | 0.00 | 43 | 1011.2 |
| 20260831195555 | 78 | 212 | 0.9 | 3.5 | 0.00 | 0.00 | 0.00 | 45 | 1011.3 |
| 20260831194554 | 78 | 232 | 0.9 | 1.7 | 0.00 | 0.00 | 0.00 | 45 | 1011.4 |
| 20260831193551 | 78 | 223 | 0.9 | 2.6 | 0.00 | 0.00 | 0.00 | 47 | 1011.4 |
| 20260831192549 | 78 | 218 | 0.9 | 2.6 | 0.00 | 0.00 | 0.00 | 47 | 1011.5 |
| 20260831191547 | 77 | 255 | 0.9 | 3.5 | 0.00 | 0.00 | 0.00 | 48 | 1011.8 |
| 20260831190545 | 75 | 188 | 0.9 | 2.6 | 0.00 | 0.00 | 0.00 | 50 | 1012.0 |
| 20260831185543 | 75 | 329 | 1.7 | 2.6 | 0.00 | 0.00 | 0.00 | 50 | 1011.9 |
| 20260831184541 | 74 | 228 | 1.7 | 4.3 | 0.00 | 0.00 | 0.00 | 53 | 1012.0 |
| 20260831183559 | 74 | 175 | 0.9 | 3.5 | 0.00 | 0.00 | 0.00 | 52 | 1012.1 |
| 20260831182537 | 71 | 125 | 2.6 | 2.6 | 0.00 | 0.00 | 0.00 | 56 | 1012.3 |